sensor_id;sensor_type;location;lat;lon;timestamp;pressure;altitude;pressure_sealevel;temperature;humidity
49030;BME280;43337;52.070;4.508;2023-05-24T00:01:51;102664.38;;;9.90;100.00
49030;BME280;43337;52.070;4.508;2023-05-24T00:04:17;102646.88;;;9.86;100.00
49030;BME280;43337;52.070;4.508;2023-05-24T00:06:44;102646.06;;;9.81;100.00
49030;BME280;43337;52.070;4.508;2023-05-24T00:09:09;102655.69;;;9.82;100.00
49030;BME280;43337;52.070;4.508;2023-05-24T00:11:36;102654.00;;;9.77;100.00
49030;BME280;43337;52.070;4.508;2023-05-24T00:14:01;102639.16;;;9.70;100.00
49030;BME280;43337;52.070;4.508;2023-05-24T00:16:27;102634.78;;;9.68;100.00
49030;BME280;43337;52.070;4.508;2023-05-24T00:18:52;102646.16;;;9.73;100.00
49030;BME280;43337;52.070;4.508;2023-05-24T00:21:19;102630.44;;;9.65;100.00
49030;BME280;43337;52.070;4.508;2023-05-24T00:23:44;102638.34;;;9.65;100.00
49030;BME280;43337;52.070;4.508;2023-05-24T00:26:10;102641.84;;;9.63;100.00
49030;BME280;43337;52.070;4.508;2023-05-24T00:28:35;102639.25;;;9.60;100.00
49030;BME280;43337;52.070;4.508;2023-05-24T00:31:01;102624.41;;;9.52;100.00
49030;BME280;43337;52.070;4.508;2023-05-24T00:33:27;102646.25;;;9.59;100.00
49030;BME280;43337;52.070;4.508;2023-05-24T00:35:53;102648.94;;;9.54;100.00
49030;BME280;43337;52.070;4.508;2023-05-24T00:38:22;102639.38;;;9.44;100.00
49030;BME280;43337;52.070;4.508;2023-05-24T00:40:48;102649.84;;;9.49;100.00
49030;BME280;43337;52.070;4.508;2023-05-24T00:43:14;102657.75;;;9.47;100.00
49030;BME280;43337;52.070;4.508;2023-05-24T00:45:39;102652.53;;;9.44;100.00
49030;BME280;43337;52.070;4.508;2023-05-24T00:48:05;102652.53;;;9.44;100.00
49030;BME280;43337;52.070;4.508;2023-05-24T00:50:30;102635.97;;;9.35;100.00
49030;BME280;43337;52.070;4.508;2023-05-24T00:52:59;102651.69;;;9.41;100.00
49030;BME280;43337;52.070;4.508;2023-05-24T00:55:26;102647.34;;;9.34;100.00
49030;BME280;43337;52.070;4.508;2023-05-24T00:57:52;102638.66;;;9.28;100.00
49030;BME280;43337;52.070;4.508;2023-05-24T01:00:19;102626.50;;;9.15;100.00
49030;BME280;43337;52.070;4.508;2023-05-24T01:02:45;102636.03;;;9.25;100.00
49030;BME280;43337;52.070;4.508;2023-05-24T01:05:12;102636.91;;;9.26;100.00
49030;BME280;43337;52.070;4.508;2023-05-24T01:07:53;102649.16;;;9.25;100.00
49030;BME280;43337;52.070;4.508;2023-05-24T01:10:58;102639.56;;;9.21;100.00
49030;BME280;43337;52.070;4.508;2023-05-24T01:13:25;102619.53;;;9.10;100.00
49030;BME280;43337;52.070;4.508;2023-05-24T01:16:08;102647.50;;;9.17;100.00
49030;BME280;43337;52.070;4.508;2023-05-24T01:18:40;102646.66;;;9.10;100.00
49030;BME280;43337;52.070;4.508;2023-05-24T01:26:44;102644.94;;;9.06;100.00
49030;BME280;43337;52.070;4.508;2023-05-24T01:29:13;102631.84;;;8.98;100.00
49030;BME280;43337;52.070;4.508;2023-05-24T01:31:39;102637.97;;;8.99;100.00
49030;BME280;43337;52.070;4.508;2023-05-24T01:34:05;102637.13;;;8.97;100.00
49030;BME280;43337;52.070;4.508;2023-05-24T01:36:31;102637.13;;;8.98;100.00
49030;BME280;43337;52.070;4.508;2023-05-24T01:38:56;102631.88;;;8.97;100.00
49030;BME280;43337;52.070;4.508;2023-05-24T01:41:26;102631.00;;;8.98;100.00
49030;BME280;43337;52.070;4.508;2023-05-24T01:44:17;102637.16;;;8.91;100.00
49030;BME280;43337;52.070;4.508;2023-05-24T01:47:16;102628.44;;;8.89;100.00
49030;BME280;43337;52.070;4.508;2023-05-24T01:49:41;102623.19;;;8.86;100.00
49030;BME280;43337;52.070;4.508;2023-05-24T01:52:18;102631.88;;;8.95;100.00
49030;BME280;43337;52.070;4.508;2023-05-24T01:54:50;102631.06;;;8.89;100.00
49030;BME280;43337;52.070;4.508;2023-05-24T01:57:18;102621.44;;;8.86;100.00
49030;BME280;43337;52.070;4.508;2023-05-24T01:59:44;102604.88;;;8.76;100.00
49030;BME280;43337;52.070;4.508;2023-05-24T02:02:10;102631.97;;;8.85;100.00
49030;BME280;43337;52.070;4.508;2023-05-24T02:04:35;102631.97;;;8.83;100.00
49030;BME280;43337;52.070;4.508;2023-05-24T02:07:01;102618.88;;;8.77;100.00
49030;BME280;43337;52.070;4.508;2023-05-24T02:09:26;102604.94;;;8.69;100.00
49030;BME280;43337;52.070;4.508;2023-05-24T02:11:51;102623.25;;;8.75;100.00
49030;BME280;43337;52.070;4.508;2023-05-24T02:14:17;102632.91;;;8.74;100.00
49030;BME280;43337;52.070;4.508;2023-05-24T02:16:44;102614.53;;;8.68;100.00
49030;BME280;43337;52.070;4.508;2023-05-24T02:19:11;102613.69;;;8.69;100.00
49030;BME280;43337;52.070;4.508;2023-05-24T02:21:37;102619.81;;;8.70;100.00
49030;BME280;43337;52.070;4.508;2023-05-24T02:24:03;102600.59;;;8.62;100.00
49030;BME280;43337;52.070;4.508;2023-05-24T02:26:28;102590.22;;;8.42;100.00
49030;BME280;43337;52.070;4.508;2023-05-24T02:28:53;102625.09;;;8.59;100.00
49030;BME280;43337;52.070;4.508;2023-05-24T02:31:19;102605.06;;;8.41;100.00
49030;BME280;43337;52.070;4.508;2023-05-24T02:33:45;102611.16;;;8.48;100.00
49030;BME280;43337;52.070;4.508;2023-05-24T02:36:11;102618.13;;;8.52;100.00
49030;BME280;43337;52.070;4.508;2023-05-24T02:38:36;102616.41;;;8.48;100.00
49030;BME280;43337;52.070;4.508;2023-05-24T02:41:02;102604.22;;;8.42;100.00
49030;BME280;43337;52.070;4.508;2023-05-24T02:43:27;102614.66;;;8.45;100.00
49030;BME280;43337;52.070;4.508;2023-05-24T02:45:53;102625.19;;;8.47;100.00
49030;BME280;43337;52.070;4.508;2023-05-24T02:48:18;102613.84;;;8.42;100.00
49030;BME280;43337;52.070;4.508;2023-05-24T02:50:43;102619.06;;;8.43;100.00
49030;BME280;43337;52.070;4.508;2023-05-24T02:53:09;102633.94;;;8.46;100.00
49030;BME280;43337;52.070;4.508;2023-05-24T02:55:34;102603.38;;;8.25;100.00
49030;BME280;43337;52.070;4.508;2023-05-24T02:57:59;102633.06;;;8.41;100.00
49030;BME280;43337;52.070;4.508;2023-05-24T03:00:25;102612.97;;;8.30;100.00
49030;BME280;43337;52.070;4.508;2023-05-24T03:02:50;102595.50;;;8.25;100.00
49030;BME280;43337;52.070;4.508;2023-05-24T03:05:16;102622.59;;;8.42;100.00
49030;BME280;43337;52.070;4.508;2023-05-24T03:07:42;102620.84;;;8.38;100.00
49030;BME280;43337;52.070;4.508;2023-05-24T03:10:08;102616.44;;;8.36;100.00
49030;BME280;43337;52.070;4.508;2023-05-24T03:12:33;102607.69;;;8.37;100.00
49030;BME280;43337;52.070;4.508;2023-05-24T03:15:02;102625.19;;;8.44;100.00
49030;BME280;43337;52.070;4.508;2023-05-24T03:17:27;102606.84;;;8.39;100.00
49030;BME280;43337;52.070;4.508;2023-05-24T03:19:53;102616.44;;;8.40;100.00
49030;BME280;43337;52.070;4.508;2023-05-24T03:22:18;102612.09;;;8.35;100.00
49030;BME280;43337;52.070;4.508;2023-05-24T03:24:44;102603.34;;;8.29;100.00
49030;BME280;43337;52.070;4.508;2023-05-24T03:27:10;102616.47;;;8.39;100.00
49030;BME280;43337;52.070;4.508;2023-05-24T03:29:36;102604.22;;;8.35;100.00
49030;BME280;43337;52.070;4.508;2023-05-24T03:32:01;102602.44;;;8.37;100.00
49030;BME280;43337;52.070;4.508;2023-05-24T03:34:26;102605.94;;;8.36;100.00
49030;BME280;43337;52.070;4.508;2023-05-24T03:36:52;102599.84;;;8.35;100.00
49030;BME280;43337;52.070;4.508;2023-05-24T03:39:17;102596.34;;;8.31;100.00
49030;BME280;43337;52.070;4.508;2023-05-24T03:41:42;102597.22;;;8.26;100.00
49030;BME280;43337;52.070;4.508;2023-05-24T03:44:08;102593.72;;;8.28;100.00
49030;BME280;43337;52.070;4.508;2023-05-24T03:46:34;102578.03;;;8.21;100.00
49030;BME280;43337;52.070;4.508;2023-05-24T03:48:59;102591.16;;;8.19;100.00
49030;BME280;43337;52.070;4.508;2023-05-24T03:51:25;102598.13;;;8.25;100.00
49030;BME280;43337;52.070;4.508;2023-05-24T03:53:55;102600.75;;;8.25;100.00
49030;BME280;43337;52.070;4.508;2023-05-24T03:56:21;102617.34;;;8.35;100.00
49030;BME280;43337;52.070;4.508;2023-05-24T03:58:46;102606.81;;;8.36;100.00
49030;BME280;43337;52.070;4.508;2023-05-24T04:01:12;102597.22;;;8.32;100.00
49030;BME280;43337;52.070;4.508;2023-05-24T04:03:37;102588.50;;;8.22;100.00
49030;BME280;43337;52.070;4.508;2023-05-24T04:06:03;102605.13;;;8.27;100.00
49030;BME280;43337;52.070;4.508;2023-05-24T04:08:28;102599.84;;;8.26;100.00
49030;BME280;43337;52.070;4.508;2023-05-24T04:10:54;102620.81;;;8.35;100.00
49030;BME280;43337;52.070;4.508;2023-05-24T04:13:19;102623.47;;;8.38;100.00
49030;BME280;43337;52.070;4.508;2023-05-24T04:15:45;102612.94;;;8.35;100.00
49030;BME280;43337;52.070;4.508;2023-05-24T04:18:10;102606.81;;;8.36;100.00
49030;BME280;43337;52.070;4.508;2023-05-24T04:20:36;102620.78;;;8.47;100.00
49030;BME280;43337;52.070;4.508;2023-05-24T04:23:02;102624.28;;;8.51;100.00
49030;BME280;43337;52.070;4.508;2023-05-24T04:25:27;102617.25;;;8.54;100.00
49030;BME280;43337;52.070;4.508;2023-05-24T04:27:53;102626.81;;;8.68;100.00
49030;BME280;43337;52.070;4.508;2023-05-24T04:30:20;102624.13;;;8.75;100.00
49030;BME280;43337;52.070;4.508;2023-05-24T04:32:46;102620.59;;;8.84;100.00
49030;BME280;43337;52.070;4.508;2023-05-24T04:35:12;102622.31;;;8.88;100.00
49030;BME280;43337;52.070;4.508;2023-05-24T04:37:38;102624.84;;;8.99;100.00
49030;BME280;43337;52.070;4.508;2023-05-24T04:40:06;102622.16;;;9.07;100.00
49030;BME280;43337;52.070;4.508;2023-05-24T04:42:32;102615.06;;;9.19;100.00
49030;BME280;43337;52.070;4.508;2023-05-24T04:44:58;102610.66;;;9.24;100.00
49030;BME280;43337;52.070;4.508;2023-05-24T04:47:24;102614.06;;;9.33;100.00
49030;BME280;43337;52.070;4.508;2023-05-24T04:49:50;102619.25;;;9.40;100.00
49030;BME280;43337;52.070;4.508;2023-05-24T04:52:16;102600.88;;;9.37;100.00
49030;BME280;43337;52.070;4.508;2023-05-24T04:54:42;102620.03;;;9.51;100.00
49030;BME280;43337;52.070;4.508;2023-05-24T04:57:07;102613.03;;;9.53;100.00
49030;BME280;43337;52.070;4.508;2023-05-24T04:59:33;102622.56;;;9.61;100.00
49030;BME280;43337;52.070;4.508;2023-05-24T05:01:58;102614.75;;;9.58;100.00
49030;BME280;43337;52.070;4.508;2023-05-24T05:04:24;102610.25;;;9.67;100.00
49030;BME280;43337;52.070;4.508;2023-05-24T05:06:49;102603.19;;;9.71;100.00
49030;BME280;43337;52.070;4.508;2023-05-24T05:09:15;102616.22;;;9.83;100.00
49030;BME280;43337;52.070;4.508;2023-05-24T05:11:40;102616.13;;;9.92;100.00
49030;BME280;43337;52.070;4.508;2023-05-24T05:14:06;102616.00;;;10.01;100.00
49030;BME280;43337;52.070;4.508;2023-05-24T05:16:34;102613.31;;;10.08;100.00
49030;BME280;43337;52.070;4.508;2023-05-24T05:19:01;102600.91;;;10.17;100.00
49030;BME280;43337;52.070;4.508;2023-05-24T05:21:28;102606.88;;;10.35;100.00
49030;BME280;43337;52.070;4.508;2023-05-24T05:23:54;102614.56;;;10.50;100.00
49030;BME280;43337;52.070;4.508;2023-05-24T05:26:19;102609.97;;;10.64;100.00
49030;BME280;43337;52.070;4.508;2023-05-24T05:28:45;102618.47;;;10.85;100.00
49030;BME280;43337;52.070;4.508;2023-05-24T05:31:11;102627.03;;;10.97;100.00
49030;BME280;43337;52.070;4.508;2023-05-24T05:33:36;102625.97;;;11.11;100.00
49030;BME280;43337;52.070;4.508;2023-05-24T05:36:01;102618.84;;;11.16;100.00
49030;BME280;43337;52.070;4.508;2023-05-24T05:38:27;102634.50;;;11.27;100.00
49030;BME280;43337;52.070;4.508;2023-05-24T05:40:52;102624.81;;;11.27;100.00
49030;BME280;43337;52.070;4.508;2023-05-24T05:43:17;102625.63;;;11.31;100.00
49030;BME280;43337;52.070;4.508;2023-05-24T05:45:44;102626.38;;;11.39;100.00
49030;BME280;43337;52.070;4.508;2023-05-24T05:48:09;102622.78;;;11.43;100.00
49030;BME280;43337;52.070;4.508;2023-05-24T05:50:35;102625.34;;;11.47;100.00
49030;BME280;43337;52.070;4.508;2023-05-24T05:53:00;102627.75;;;11.61;100.00
49030;BME280;43337;52.070;4.508;2023-05-24T05:55:25;102629.28;;;11.71;100.00
49030;BME280;43337;52.070;4.508;2023-05-24T05:57:51;102617.78;;;11.76;100.00
49030;BME280;43337;52.070;4.508;2023-05-24T06:00:16;102628.13;;;11.89;100.00
49030;BME280;43337;52.070;4.508;2023-05-24T06:02:42;102618.31;;;11.96;100.00
49030;BME280;43337;52.070;4.508;2023-05-24T06:05:08;102618.22;;;12.01;100.00
49030;BME280;43337;52.070;4.508;2023-05-24T06:07:33;102615.41;;;12.10;100.00
49030;BME280;43337;52.070;4.508;2023-05-24T06:10:01;102618.03;;;12.11;100.00
49030;BME280;43337;52.070;4.508;2023-05-24T06:12:27;102625.69;;;12.22;100.00
49030;BME280;43337;52.070;4.508;2023-05-24T06:14:52;102612.44;;;12.25;100.00
49030;BME280;43337;52.070;4.508;2023-05-24T06:17:21;102632.41;;;12.38;100.00
49030;BME280;43337;52.070;4.508;2023-05-24T06:19:49;102624.44;;;12.40;100.00
49030;BME280;43337;52.070;4.508;2023-05-24T06:22:15;102625.22;;;12.45;100.00
49030;BME280;43337;52.070;4.508;2023-05-24T06:24:41;102649.63;;;12.58;100.00
49030;BME280;43337;52.070;4.508;2023-05-24T06:27:07;102636.41;;;12.58;100.00
49030;BME280;43337;52.070;4.508;2023-05-24T06:29:33;102647.69;;;12.64;100.00
49030;BME280;43337;52.070;4.508;2023-05-24T06:31:58;102623.19;;;12.58;100.00
49030;BME280;43337;52.070;4.508;2023-05-24T06:34:23;102652.81;;;12.72;100.00
49030;BME280;43337;52.070;4.508;2023-05-24T06:36:49;102644.81;;;12.75;100.00
49030;BME280;43337;52.070;4.508;2023-05-24T06:39:15;102643.88;;;12.78;100.00
49030;BME280;43337;52.070;4.508;2023-05-24T06:41:42;102635.16;;;12.74;100.00
49030;BME280;43337;52.070;4.508;2023-05-24T06:44:08;102635.91;;;12.79;100.00
49030;BME280;43337;52.070;4.508;2023-05-24T06:46:34;102636.56;;;12.89;100.00
49030;BME280;43337;52.070;4.508;2023-05-24T06:48:59;102631.13;;;12.97;100.00
49030;BME280;43337;52.070;4.508;2023-05-24T06:51:25;102635.28;;;13.07;100.00
49030;BME280;43337;52.070;4.508;2023-05-24T06:53:50;102635.16;;;13.11;100.00
49030;BME280;43337;52.070;4.508;2023-05-24T06:56:16;102636.91;;;13.12;100.00
49030;BME280;43337;52.070;4.508;2023-05-24T06:58:41;102629.75;;;13.16;100.00
49030;BME280;43337;52.070;4.508;2023-05-24T07:01:07;102633.34;;;13.13;100.00
49030;BME280;43337;52.070;4.508;2023-05-24T07:03:33;102641.91;;;13.25;100.00
49030;BME280;43337;52.070;4.508;2023-05-24T07:05:58;102630.50;;;13.21;100.00
49030;BME280;43337;52.070;4.508;2023-05-24T07:08:24;102626.88;;;13.27;100.00
49030;BME280;43337;52.070;4.508;2023-05-24T07:10:50;102637.09;;;13.42;100.00
49030;BME280;43337;52.070;4.508;2023-05-24T07:13:16;102608.19;;;13.34;100.00
49030;BME280;43337;52.070;4.508;2023-05-24T07:15:41;102634.97;;;13.55;100.00
49030;BME280;43337;52.070;4.508;2023-05-24T07:18:07;102613.16;;;13.45;100.00
49030;BME280;43337;52.070;4.508;2023-05-24T07:20:32;102615.78;;;13.47;100.00
49030;BME280;43337;52.070;4.508;2023-05-24T07:22:58;102626.91;;;13.61;100.00
49030;BME280;43337;52.070;4.508;2023-05-24T07:25:24;102646.75;;;13.77;100.00
49030;BME280;43337;52.070;4.508;2023-05-24T07:27:49;102635.94;;;13.85;100.00
49030;BME280;43337;52.070;4.508;2023-05-24T07:30:15;102649.75;;;13.96;100.00
49030;BME280;43337;52.070;4.508;2023-05-24T07:32:41;102644.19;;;14.05;100.00
49030;BME280;43337;52.070;4.508;2023-05-24T07:35:07;102651.00;;;14.15;100.00
49030;BME280;43337;52.070;4.508;2023-05-24T07:37:32;102646.28;;;14.25;100.00
49030;BME280;43337;52.070;4.508;2023-05-24T07:39:57;102646.13;;;14.31;100.00
49030;BME280;43337;52.070;4.508;2023-05-24T07:42:23;102639.91;;;14.32;100.00
49030;BME280;43337;52.070;4.508;2023-05-24T07:44:48;102652.88;;;14.41;100.00
49030;BME280;43337;52.070;4.508;2023-05-24T07:47:14;102640.59;;;14.39;100.00
49030;BME280;43337;52.070;4.508;2023-05-24T07:49:39;102654.41;;;14.49;100.00
49030;BME280;43337;52.070;4.508;2023-05-24T07:52:05;102637.59;;;14.51;100.00
49030;BME280;43337;52.070;4.508;2023-05-24T07:54:31;102647.09;;;14.58;100.00
49030;BME280;43337;52.070;4.508;2023-05-24T07:56:56;102648.56;;;14.69;100.00
49030;BME280;43337;52.070;4.508;2023-05-24T07:59:21;102626.59;;;14.65;100.00
49030;BME280;43337;52.070;4.508;2023-05-24T08:01:48;102648.91;;;14.86;100.00
49030;BME280;43337;52.070;4.508;2023-05-24T08:04:14;102654.56;;;15.03;100.00
49030;BME280;43337;52.070;4.508;2023-05-24T08:06:40;102656.72;;;15.19;100.00
49030;BME280;43337;52.070;4.508;2023-05-24T08:09:05;102652.56;;;15.36;100.00
49030;BME280;43337;52.070;4.508;2023-05-24T08:11:32;102643.28;;;15.50;100.00
49030;BME280;43337;52.070;4.508;2023-05-24T08:13:57;102659.81;;;15.58;100.00
49030;BME280;43337;52.070;4.508;2023-05-24T08:16:23;102651.69;;;15.62;100.00
49030;BME280;43337;52.070;4.508;2023-05-24T08:18:48;102640.41;;;15.56;100.00
49030;BME280;43337;52.070;4.508;2023-05-24T08:21:14;102652.91;;;15.52;100.00
49030;BME280;43337;52.070;4.508;2023-05-24T08:23:39;102641.53;;;15.49;100.00
49030;BME280;43337;52.070;4.508;2023-05-24T08:26:05;102638.47;;;15.61;100.00
49030;BME280;43337;52.070;4.508;2023-05-24T08:28:30;102618.56;;;15.74;100.00
49030;BME280;43337;52.070;4.508;2023-05-24T08:30:56;102639.91;;;15.96;100.00
49030;BME280;43337;52.070;4.508;2023-05-24T08:33:22;102635.47;;;15.97;100.00
49030;BME280;43337;52.070;4.508;2023-05-24T08:35:49;102647.78;;;15.99;100.00
49030;BME280;43337;52.070;4.508;2023-05-24T08:38:15;102645.63;;;16.09;100.00
49030;BME280;43337;52.070;4.508;2023-05-24T08:40:41;102630.78;;;16.03;100.00
49030;BME280;43337;52.070;4.508;2023-05-24T08:43:07;102625.53;;;16.02;100.00
49030;BME280;43337;52.070;4.508;2023-05-24T08:45:37;102631.38;;;16.11;100.00
49030;BME280;43337;52.070;4.508;2023-05-24T08:48:04;102632.88;;;16.19;100.00
49030;BME280;43337;52.070;4.508;2023-05-24T08:50:31;102643.28;;;16.25;100.00
49030;BME280;43337;52.070;4.508;2023-05-24T08:52:57;102618.84;;;16.15;100.00
49030;BME280;43337;52.070;4.508;2023-05-24T08:55:23;102644.09;;;16.27;100.00
49030;BME280;43337;52.070;4.508;2023-05-24T08:57:49;102637.38;;;16.40;100.00
49030;BME280;43337;52.070;4.508;2023-05-24T09:00:15;102639.63;;;16.51;100.00
49030;BME280;43337;52.070;4.508;2023-05-24T09:02:42;102641.88;;;16.62;99.57
49030;BME280;43337;52.070;4.508;2023-05-24T09:05:13;102641.50;;;16.71;99.86
49030;BME280;43337;52.070;4.508;2023-05-24T09:07:42;102643.47;;;16.89;100.00
49030;BME280;43337;52.070;4.508;2023-05-24T09:10:08;102650.47;;;16.92;99.11
49030;BME280;43337;52.070;4.508;2023-05-24T09:12:36;102645.16;;;16.92;97.44
49030;BME280;43337;52.070;4.508;2023-05-24T09:15:02;102640.81;;;16.89;94.98
49030;BME280;43337;52.070;4.508;2023-05-24T09:17:30;102641.78;;;16.87;93.93
49030;BME280;43337;52.070;4.508;2023-05-24T09:19:57;102644.41;;;16.88;95.57
49030;BME280;43337;52.070;4.508;2023-05-24T09:22:26;102637.00;;;16.96;93.25
49030;BME280;43337;52.070;4.508;2023-05-24T09:24:52;102629.25;;;17.12;93.89
49030;BME280;43337;52.070;4.508;2023-05-24T09:27:21;102631.34;;;17.26;92.91
49030;BME280;43337;52.070;4.508;2023-05-24T09:29:50;102626.47;;;17.36;92.33
49030;BME280;43337;52.070;4.508;2023-05-24T09:32:19;102640.75;;;17.55;91.77
49030;BME280;43337;52.070;4.508;2023-05-24T09:34:55;102631.47;;;17.64;91.80
49030;BME280;43337;52.070;4.508;2023-05-24T09:37:21;102616.91;;;17.72;91.56
49030;BME280;43337;52.070;4.508;2023-05-24T09:39:49;102626.72;;;17.92;90.43
49030;BME280;43337;52.070;4.508;2023-05-24T09:42:19;102627.59;;;18.12;89.03
49030;BME280;43337;52.070;4.508;2023-05-24T09:45:07;102618.09;;;18.25;77.53
49030;BME280;43337;52.070;4.508;2023-05-24T09:47:39;102619.06;;;18.43;88.90
49030;BME280;43337;52.070;4.508;2023-05-24T09:50:11;102613.81;;;18.41;86.10
49030;BME280;43337;52.070;4.508;2023-05-24T09:52:37;102620.34;;;18.34;85.83
49030;BME280;43337;52.070;4.508;2023-05-24T09:55:16;102617.91;;;18.29;82.89
49030;BME280;43337;52.070;4.508;2023-05-24T09:57:43;102612.19;;;18.37;84.43
49030;BME280;43337;52.070;4.508;2023-05-24T10:00:09;102620.50;;;18.50;84.09
49030;BME280;43337;52.070;4.508;2023-05-24T10:02:45;102610.19;;;18.42;83.42
49030;BME280;43337;52.070;4.508;2023-05-24T10:05:11;102613.22;;;18.53;80.58
49030;BME280;43337;52.070;4.508;2023-05-24T10:07:39;102611.75;;;18.65;79.92
49030;BME280;43337;52.070;4.508;2023-05-24T10:10:05;102623.44;;;18.82;80.12
49030;BME280;43337;52.070;4.508;2023-05-24T10:12:32;102616.97;;;18.87;78.67
49030;BME280;43337;52.070;4.508;2023-05-24T10:14:59;102614.50;;;18.83;78.64
49030;BME280;43337;52.070;4.508;2023-05-24T10:17:24;102617.97;;;18.85;78.03
49030;BME280;43337;52.070;4.508;2023-05-24T10:19:53;102613.63;;;18.82;78.16
49030;BME280;43337;52.070;4.508;2023-05-24T10:22:20;102615.31;;;18.85;77.70
49030;BME280;43337;52.070;4.508;2023-05-24T10:24:52;102623.88;;;18.91;77.91
49030;BME280;43337;52.070;4.508;2023-05-24T10:27:23;102603.94;;;18.98;74.93
49030;BME280;43337;52.070;4.508;2023-05-24T10:30:42;102618.41;;;19.12;75.04
49030;BME280;43337;52.070;4.508;2023-05-24T10:32:43;102612.34;;;19.08;74.92
49030;BME280;43337;52.070;4.508;2023-05-24T10:35:09;102606.94;;;19.10;75.16
49030;BME280;43337;52.070;4.508;2023-05-24T10:37:39;102618.16;;;19.16;73.40
49030;BME280;43337;52.070;4.508;2023-05-24T10:40:05;102612.75;;;19.18;71.20
49030;BME280;43337;52.070;4.508;2023-05-24T10:42:34;102616.69;;;19.28;71.21
49030;BME280;43337;52.070;4.508;2023-05-24T10:47:49;102612.84;;;19.51;66.38
49030;BME280;43337;52.070;4.508;2023-05-24T10:50:19;102606.03;;;19.63;66.02
49030;BME280;43337;52.070;4.508;2023-05-24T10:52:45;102599.81;;;19.62;65.43
49030;BME280;43337;52.070;4.508;2023-05-24T10:55:14;102597.84;;;19.66;65.80
49030;BME280;43337;52.070;4.508;2023-05-24T10:57:39;102609.09;;;19.72;65.24
49030;BME280;43337;52.070;4.508;2023-05-24T11:02:49;102594.53;;;19.78;64.48
49030;BME280;43337;52.070;4.508;2023-05-24T11:05:16;102609.03;;;19.90;64.80
49030;BME280;43337;52.070;4.508;2023-05-24T11:07:43;102598.88;;;19.96;63.72
49030;BME280;43337;52.070;4.508;2023-05-24T11:10:17;102605.88;;;19.99;64.17
49030;BME280;43337;52.070;4.508;2023-05-24T11:12:59;102605.78;;;20.00;63.22
49030;BME280;43337;52.070;4.508;2023-05-24T11:15:25;102607.66;;;19.98;64.39
49030;BME280;43337;52.070;4.508;2023-05-24T11:20:33;102616.50;;;20.00;62.51
49030;BME280;43337;52.070;4.508;2023-05-24T11:23:02;102607.63;;;19.83;62.33
49030;BME280;43337;52.070;4.508;2023-05-24T11:25:27;102608.75;;;19.79;62.03
49030;BME280;43337;52.070;4.508;2023-05-24T11:27:58;102614.75;;;19.66;61.89
49030;BME280;43337;52.070;4.508;2023-05-24T11:30:23;102603.09;;;19.50;62.01
49030;BME280;43337;52.070;4.508;2023-05-24T11:32:49;102606.63;;;19.50;62.74
49030;BME280;43337;52.070;4.508;2023-05-24T11:35:14;102592.56;;;19.47;62.85
49030;BME280;43337;52.070;4.508;2023-05-24T11:37:42;102602.47;;;19.45;62.98
49030;BME280;43337;52.070;4.508;2023-05-24T11:40:10;102590.44;;;19.54;64.36
49030;BME280;43337;52.070;4.508;2023-05-24T11:42:36;102599.31;;;19.71;63.29
49030;BME280;43337;52.070;4.508;2023-05-24T11:45:03;102601.78;;;19.76;62.74
49030;BME280;43337;52.070;4.508;2023-05-24T11:47:29;102601.13;;;19.88;63.30
49030;BME280;43337;52.070;4.508;2023-05-24T11:49:54;102599.06;;;20.09;63.07
49030;BME280;43337;52.070;4.508;2023-05-24T11:52:20;102608.34;;;20.19;62.15
49030;BME280;43337;52.070;4.508;2023-05-24T11:54:45;102600.16;;;20.22;61.03
49030;BME280;43337;52.070;4.508;2023-05-24T11:57:11;102605.66;;;20.19;61.04
49030;BME280;43337;52.070;4.508;2023-05-24T11:59:37;102609.72;;;20.27;61.25
49030;BME280;43337;52.070;4.508;2023-05-24T12:02:04;102598.16;;;20.26;61.10
49030;BME280;43337;52.070;4.508;2023-05-24T12:04:30;102597.31;;;20.26;60.09
49030;BME280;43337;52.070;4.508;2023-05-24T12:06:56;102602.91;;;20.37;60.56
49030;BME280;43337;52.070;4.508;2023-05-24T12:09:22;102605.16;;;20.44;60.49
49030;BME280;43337;52.070;4.508;2023-05-24T12:11:48;102599.78;;;20.44;60.58
49030;BME280;43337;52.070;4.508;2023-05-24T12:14:19;102607.81;;;20.44;60.51
49030;BME280;43337;52.070;4.508;2023-05-24T12:16:46;102574.31;;;20.21;60.67
49030;BME280;43337;52.070;4.508;2023-05-24T12:19:18;102595.97;;;20.17;61.06
49030;BME280;43337;52.070;4.508;2023-05-24T12:21:44;102603.41;;;20.12;61.31
49030;BME280;43337;52.070;4.508;2023-05-24T12:24:11;102590.13;;;20.10;61.32
49030;BME280;43337;52.070;4.508;2023-05-24T12:26:40;102590.63;;;20.01;59.53
49030;BME280;43337;52.070;4.508;2023-05-24T12:29:06;102585.84;;;19.90;60.68
49030;BME280;43337;52.070;4.508;2023-05-24T12:31:32;102584.28;;;19.86;60.88
49030;BME280;43337;52.070;4.508;2023-05-24T12:33:58;102587.41;;;19.94;61.31
49030;BME280;43337;52.070;4.508;2023-05-24T12:36:23;102588.38;;;20.09;61.61
49030;BME280;43337;52.070;4.508;2023-05-24T12:38:48;102584.69;;;20.12;61.58
49030;BME280;43337;52.070;4.508;2023-05-24T12:41:14;102598.59;;;20.18;60.53
49030;BME280;43337;52.070;4.508;2023-05-24T12:43:41;102600.28;;;20.04;59.95
49030;BME280;43337;52.070;4.508;2023-05-24T12:46:08;102583.16;;;19.90;60.63
49030;BME280;43337;52.070;4.508;2023-05-24T12:48:33;102596.97;;;19.98;61.32
49030;BME280;43337;52.070;4.508;2023-05-24T12:50:59;102602.97;;;20.04;61.31
49030;BME280;43337;52.070;4.508;2023-05-24T12:53:24;102593.72;;;20.09;60.80
49030;BME280;43337;52.070;4.508;2023-05-24T12:55:50;102597.19;;;20.11;60.29
49030;BME280;43337;52.070;4.508;2023-05-24T12:58:20;102598.91;;;20.12;61.04
49030;BME280;43337;52.070;4.508;2023-05-24T13:00:45;102587.09;;;20.16;59.68